createdAt,value
2022-12-23T00:01:23.917Z,11.73
2022-12-23T00:03:50.960Z,13.30
2022-12-23T00:06:20.134Z,14.30
2022-12-23T00:08:47.222Z,13.87
2022-12-23T00:11:18.038Z,13.63
2022-12-23T00:14:03.313Z,14.10
2022-12-23T00:16:30.507Z,13.27
2022-12-23T00:18:57.265Z,9.00
2022-12-23T00:21:24.361Z,11.23
2022-12-23T00:23:52.070Z,11.17
2022-12-23T00:26:24.771Z,12.17
2022-12-23T00:28:52.224Z,10.60
2022-12-23T00:31:19.459Z,10.90
2022-12-23T00:33:48.338Z,10.07
2022-12-23T00:36:21.053Z,11.33
2022-12-23T00:39:07.086Z,9.50
2022-12-23T00:41:53.100Z,11.13
2022-12-23T00:44:20.231Z,9.00
2022-12-23T00:46:46.966Z,10.90
2022-12-23T00:49:33.463Z,10.57
2022-12-23T00:52:00.768Z,11.70
2022-12-23T00:54:28.038Z,11.47
2022-12-23T00:56:55.434Z,12.13
2022-12-23T00:59:22.152Z,9.13
2022-12-23T01:02:08.204Z,10.73
2022-12-23T01:04:53.911Z,10.50
2022-12-23T01:07:21.604Z,8.00
2022-12-23T01:09:48.711Z,9.20
2022-12-23T01:12:15.822Z,11.23
2022-12-23T01:14:42.958Z,9.00
2022-12-23T01:17:09.790Z,9.63
2022-12-23T01:19:37.274Z,8.00
2022-12-23T01:22:04.397Z,9.53
2022-12-23T01:24:32.774Z,6.43
2022-12-23T01:26:59.910Z,9.20
2022-12-23T01:29:26.727Z,8.83
2022-12-23T01:31:53.900Z,6.97
2022-12-23T01:34:20.626Z,5.13
2022-12-23T01:36:47.729Z,6.67
2022-12-23T01:39:14.374Z,7.37
2022-12-23T01:41:59.902Z,7.33
2022-12-23T01:45:00.525Z,7.47
2022-12-23T01:47:29.874Z,6.30
2022-12-23T01:50:15.089Z,5.13
2022-12-23T01:52:50.116Z,6.73
2022-12-23T01:55:22.549Z,6.30
2022-12-23T01:57:50.005Z,6.43
2022-12-23T02:00:36.183Z,5.50
2022-12-23T02:03:22.188Z,6.53
2022-12-23T02:05:49.436Z,5.77
2022-12-23T02:08:36.008Z,5.23
2022-12-23T02:11:03.060Z,6.90
2022-12-23T02:14:03.761Z,4.97
2022-12-23T02:16:34.975Z,6.57
2022-12-23T02:19:17.712Z,6.97
2022-12-23T02:22:25.655Z,5.27
2022-12-23T02:25:18.372Z,5.37
2022-12-23T02:28:12.652Z,6.27
2022-12-23T02:30:39.731Z,6.97
2022-12-23T02:33:06.435Z,5.30
2022-12-23T02:35:54.317Z,3.77
2022-12-23T02:38:39.970Z,9.47
2022-12-23T02:41:36.079Z,5.10
2022-12-23T02:44:13.170Z,4.23
2022-12-23T02:46:50.153Z,4.73
2022-12-23T02:49:17.223Z,6.40
2022-12-23T02:51:50.910Z,5.57
2022-12-23T02:54:25.201Z,5.23
2022-12-23T02:56:54.045Z,8.20
2022-12-23T02:59:23.883Z,4.53
2022-12-23T03:01:52.129Z,5.90
2022-12-23T03:04:18.951Z,5.77
2022-12-23T03:06:51.932Z,10.00
2022-12-23T03:09:52.694Z,9.83
2022-12-23T03:12:46.591Z,8.60
2022-12-23T03:15:34.587Z,12.90
2022-12-23T03:18:27.685Z,7.17
2022-12-23T03:21:03.541Z,7.37
2022-12-23T03:23:35.557Z,9.10
2022-12-23T03:26:02.626Z,6.90
2022-12-23T03:28:56.820Z,7.80
2022-12-23T03:31:29.939Z,8.60
2022-12-23T03:34:14.582Z,8.13
2022-12-23T03:36:47.343Z,10.47
2022-12-23T03:39:18.815Z,7.60
2022-12-23T03:41:52.455Z,7.27
2022-12-23T03:44:28.333Z,9.63
2022-12-23T03:47:04.492Z,8.03
2022-12-23T03:49:38.003Z,7.93
2022-12-23T03:52:12.575Z,5.33
2022-12-23T03:54:50.853Z,5.83
2022-12-23T03:57:19.852Z,8.83
2022-12-23T03:59:51.450Z,9.63
2022-12-23T04:02:36.926Z,6.93
2022-12-23T04:05:06.611Z,16.03
2022-12-23T04:07:45.332Z,5.70
2022-12-23T04:10:13.617Z,6.93
2022-12-23T04:12:40.630Z,11.13
2022-12-23T04:15:12.828Z,8.57
2022-12-23T04:17:40.049Z,4.97
2022-12-23T04:20:07.426Z,7.83
2022-12-23T04:22:34.098Z,7.20
2022-12-23T04:25:01.195Z,5.90
2022-12-23T04:27:28.278Z,5.60
2022-12-23T04:29:54.942Z,8.27
2022-12-23T04:32:21.651Z,4.87
2022-12-23T04:34:48.716Z,3.33
2022-12-23T04:37:15.823Z,6.40
2022-12-23T04:39:42.926Z,5.17
2022-12-23T04:42:10.000Z,5.53
2022-12-23T04:44:37.093Z,3.27
2022-12-23T04:47:04.405Z,4.60
2022-12-23T04:49:31.648Z,4.97
2022-12-23T04:51:58.432Z,3.67
2022-12-23T04:54:25.100Z,4.03
2022-12-23T04:56:51.767Z,5.57
2022-12-23T04:59:19.429Z,5.03
2022-12-23T05:01:46.289Z,3.83
2022-12-23T05:04:13.668Z,3.00
2022-12-23T05:06:40.500Z,6.77
2022-12-23T05:09:07.212Z,6.27
2022-12-23T05:11:38.551Z,5.83
2022-12-23T05:14:10.741Z,6.40
2022-12-23T05:16:37.566Z,5.70
2022-12-23T05:19:04.390Z,5.47
2022-12-23T05:21:31.348Z,4.20
2022-12-23T05:23:58.029Z,7.23
2022-12-23T05:26:24.691Z,3.93
2022-12-23T05:28:51.440Z,6.77
2022-12-23T05:31:18.156Z,6.20
2022-12-23T05:33:44.946Z,6.47
2022-12-23T05:36:12.765Z,3.77
2022-12-23T05:38:39.514Z,4.90
2022-12-23T05:41:06.402Z,4.37
2022-12-23T05:43:33.232Z,3.73
2022-12-23T05:46:00.007Z,4.53
2022-12-23T05:48:26.785Z,4.17
2022-12-23T05:50:53.815Z,6.37
2022-12-23T05:53:21.021Z,7.40
2022-12-23T05:55:48.212Z,6.07
2022-12-23T05:58:15.906Z,5.27
2022-12-23T06:00:42.905Z,7.37
2022-12-23T06:03:09.664Z,4.57
2022-12-23T06:05:38.814Z,5.87
2022-12-23T06:08:05.726Z,4.33
2022-12-23T06:10:32.396Z,5.90
2022-12-23T06:12:59.037Z,7.93
2022-12-23T06:15:25.766Z,7.30
2022-12-23T06:17:52.478Z,5.10
2022-12-23T06:20:20.938Z,5.53
2022-12-23T06:22:48.236Z,4.50
2022-12-23T06:25:15.057Z,4.20
2022-12-23T06:27:41.703Z,3.37
2022-12-23T06:30:09.033Z,6.03
2022-12-23T06:32:38.609Z,4.13
2022-12-23T06:35:06.744Z,6.70
2022-12-23T06:37:33.567Z,7.63
2022-12-23T06:40:00.242Z,6.00
2022-12-23T06:42:27.046Z,8.90
2022-12-23T06:44:53.679Z,5.67
2022-12-23T06:47:20.336Z,6.63
2022-12-23T06:49:47.131Z,6.53
2022-12-23T06:52:13.785Z,5.10
2022-12-23T06:54:40.414Z,4.63
2022-12-23T06:57:07.070Z,6.83
2022-12-23T06:59:33.707Z,6.77
2022-12-23T07:02:00.687Z,6.50
2022-12-23T07:04:27.597Z,5.77
2022-12-23T07:06:54.257Z,6.73
2022-12-23T07:09:20.887Z,7.73
2022-12-23T07:11:47.562Z,7.07
2022-12-23T07:14:14.251Z,7.83
2022-12-23T07:16:40.958Z,7.57
2022-12-23T07:19:08.082Z,9.27
2022-12-23T07:21:36.607Z,7.33
2022-12-23T07:24:03.449Z,6.63
2022-12-23T07:26:30.324Z,7.53
2022-12-23T07:28:57.017Z,5.53
2022-12-23T07:31:23.875Z,7.77
2022-12-23T07:33:50.591Z,7.37
2022-12-23T07:36:17.778Z,11.43
2022-12-23T07:38:44.533Z,9.27
2022-12-23T07:41:11.290Z,11.33
2022-12-23T07:43:38.029Z,9.90
2022-12-23T07:46:09.443Z,8.20
2022-12-23T07:48:36.317Z,9.83
2022-12-23T07:51:03.899Z,6.50
2022-12-23T07:53:31.004Z,6.63
2022-12-23T07:55:57.902Z,8.70
2022-12-23T07:58:25.031Z,6.40
2022-12-23T08:00:58.639Z,6.43
2022-12-23T08:03:25.468Z,6.97
2022-12-23T08:06:06.267Z,8.13
2022-12-23T08:08:33.854Z,8.03
2022-12-23T08:11:06.092Z,8.67
2022-12-23T08:13:34.510Z,9.13
2022-12-23T08:16:02.347Z,6.60
2022-12-23T08:18:34.399Z,7.30
2022-12-23T08:21:06.404Z,5.03
2022-12-23T08:23:33.735Z,6.73
2022-12-23T08:26:05.047Z,5.67
2022-12-23T08:28:32.626Z,4.90
2022-12-23T08:31:14.303Z,6.87
2022-12-23T08:33:42.965Z,5.17
2022-12-23T08:36:16.220Z,5.17
2022-12-23T08:38:48.068Z,7.37
2022-12-23T08:41:17.820Z,5.87
2022-12-23T08:43:45.134Z,6.97
2022-12-23T08:46:12.114Z,6.37
2022-12-23T08:48:42.532Z,6.30
2022-12-23T08:51:14.390Z,9.23
2022-12-23T08:53:41.599Z,6.33
2022-12-23T08:56:17.005Z,6.57
2022-12-23T08:58:46.773Z,6.13
2022-12-23T09:01:16.613Z,7.10
2022-12-23T09:03:44.297Z,6.17
2022-12-23T09:06:13.970Z,7.23
2022-12-23T09:08:41.633Z,6.97
2022-12-23T09:11:19.498Z,4.67
2022-12-23T09:13:46.521Z,5.90
2022-12-23T09:16:14.205Z,7.23
2022-12-23T09:18:41.938Z,8.77
2022-12-23T09:21:12.156Z,5.23
2022-12-23T09:23:38.798Z,6.27
2022-12-23T09:26:06.005Z,4.37
2022-12-23T09:28:32.731Z,6.43
2022-12-23T09:31:07.643Z,6.10
2022-12-23T09:33:34.566Z,6.00
2022-12-23T09:36:01.512Z,7.07
2022-12-23T09:38:28.358Z,6.90
2022-12-23T09:41:03.472Z,6.43
2022-12-23T09:43:49.342Z,7.43
2022-12-23T09:46:22.141Z,5.13
2022-12-23T09:49:11.429Z,5.27
2022-12-23T09:51:38.456Z,5.20
2022-12-23T09:54:19.812Z,5.90
2022-12-23T09:56:52.422Z,6.07
2022-12-23T09:59:42.443Z,7.63
2022-12-23T10:02:12.249Z,6.17
2022-12-23T10:05:30.297Z,4.80
2022-12-23T10:08:11.623Z,5.37
2022-12-23T10:10:58.506Z,7.43
2022-12-23T10:13:35.645Z,8.93
2022-12-23T10:16:25.889Z,12.70
2022-12-23T10:18:58.925Z,24.00
2022-12-23T10:21:46.856Z,23.97
2022-12-23T10:24:25.979Z,11.27
2022-12-23T10:27:06.507Z,9.70
2022-12-23T10:29:34.490Z,8.17
2022-12-23T10:32:19.287Z,6.33
2022-12-23T10:35:18.552Z,5.73
2022-12-23T10:37:55.148Z,7.57
2022-12-23T10:40:45.346Z,4.67
2022-12-23T10:43:35.671Z,4.40
2022-12-23T10:46:17.474Z,4.87
2022-12-23T10:49:08.912Z,7.33
2022-12-23T10:51:55.832Z,4.93
2022-12-23T10:54:34.557Z,5.57
2022-12-23T10:57:02.771Z,4.53
2022-12-23T10:59:33.509Z,7.17
2022-12-23T11:02:12.979Z,5.33
2022-12-23T11:04:47.139Z,4.43
2022-12-23T11:10:32.818Z,6.80
2022-12-23T11:13:00.579Z,4.70
2022-12-23T11:15:34.836Z,5.20
2022-12-23T11:18:04.715Z,5.87
2022-12-23T11:20:32.589Z,6.77
2022-12-23T11:23:02.395Z,6.07
2022-12-23T11:25:33.892Z,6.70
2022-12-23T11:28:05.223Z,5.07
2022-12-23T11:30:36.568Z,4.50
2022-12-23T11:33:03.900Z,6.93
2022-12-23T11:35:33.260Z,4.23
2022-12-23T11:38:01.832Z,4.70
2022-12-23T11:40:30.209Z,6.03
2022-12-23T11:43:02.733Z,5.30
2022-12-23T11:45:36.839Z,5.37
2022-12-23T11:48:05.302Z,6.13
2022-12-23T11:50:33.501Z,6.23
2022-12-23T11:53:23.192Z,6.43
2022-12-23T11:56:16.353Z,6.10
2022-12-23T11:59:10.343Z,4.67
2022-12-23T12:01:39.337Z,6.30
2022-12-23T12:04:16.193Z,5.77
2022-12-23T12:06:47.289Z,4.87
2022-12-23T12:09:18.851Z,4.30
2022-12-23T12:11:49.393Z,9.97
2022-12-23T12:14:27.329Z,4.67
2022-12-23T12:16:57.423Z,9.00
2022-12-23T12:19:41.742Z,5.53
2022-12-23T12:22:20.384Z,9.37
2022-12-23T12:24:53.908Z,4.50
2022-12-23T12:27:30.506Z,6.97
2022-12-23T12:30:17.571Z,4.57
2022-12-23T12:32:56.577Z,7.87
2022-12-23T12:35:37.935Z,7.40
2022-12-23T12:38:33.938Z,5.00
2022-12-23T12:41:09.671Z,7.27
2022-12-23T12:43:52.449Z,5.90
2022-12-23T12:46:36.811Z,9.63
2022-12-23T12:49:20.345Z,5.20
2022-12-23T12:51:58.355Z,8.20
2022-12-23T12:54:39.648Z,6.67
2022-12-23T12:57:11.337Z,7.63
2022-12-23T12:59:40.357Z,5.90
2022-12-23T13:02:25.635Z,4.70
2022-12-23T13:05:53.892Z,7.30
2022-12-23T13:08:58.676Z,6.30
2022-12-23T13:11:43.966Z,6.50
2022-12-23T13:14:19.245Z,5.17
2022-12-23T13:16:54.119Z,3.63
2022-12-23T13:19:52.703Z,7.63
2022-12-23T13:22:28.212Z,7.70
2022-12-23T13:25:19.886Z,4.40
2022-12-23T13:28:17.364Z,4.73
2022-12-23T13:30:56.671Z,3.23
2022-12-23T13:33:40.107Z,5.07
2022-12-23T13:36:31.098Z,8.43
2022-12-23T13:39:00.575Z,4.83
2022-12-23T13:41:32.698Z,6.97
2022-12-23T13:44:01.707Z,5.47
2022-12-23T13:46:43.232Z,6.57
2022-12-23T13:49:32.013Z,4.50
2022-12-23T13:52:19.726Z,5.30
2022-12-23T13:55:04.452Z,7.57
2022-12-23T13:57:48.768Z,4.63
2022-12-23T14:00:18.490Z,4.93
2022-12-23T14:03:02.080Z,5.97
2022-12-23T14:05:32.871Z,4.70
2022-12-23T14:08:05.755Z,5.30
2022-12-23T14:10:33.106Z,4.37
2022-12-23T14:13:08.469Z,3.40
2022-12-23T14:15:49.270Z,3.40
2022-12-23T14:18:37.065Z,6.23
2022-12-23T14:21:19.598Z,4.43
2022-12-23T14:24:05.412Z,3.10
2022-12-23T14:27:07.113Z,5.93
2022-12-23T14:30:06.518Z,5.37
2022-12-23T14:32:48.369Z,4.40
2022-12-23T14:35:47.198Z,8.13
2022-12-23T14:38:16.788Z,5.30
2022-12-23T14:40:43.876Z,6.23
2022-12-23T14:43:23.059Z,4.60
2022-12-23T14:45:53.707Z,5.13
2022-12-23T14:48:42.296Z,4.80
2022-12-23T14:51:08.977Z,5.63
2022-12-23T14:53:37.601Z,4.80
2022-12-23T14:56:14.609Z,5.43
2022-12-23T14:58:54.037Z,4.67
2022-12-23T15:01:43.324Z,5.97
2022-12-23T15:04:26.403Z,5.57
2022-12-23T15:07:00.028Z,3.37
2022-12-23T15:09:30.646Z,4.60
2022-12-23T15:12:06.118Z,4.30
2022-12-23T15:14:38.365Z,3.30
2022-12-23T15:17:26.703Z,3.50
2022-12-23T15:19:54.433Z,3.53
2022-12-23T15:22:30.155Z,7.03
2022-12-23T15:24:59.047Z,5.93
2022-12-23T15:27:28.385Z,4.03
2022-12-23T15:29:56.385Z,6.00
2022-12-23T15:32:24.397Z,4.30
2022-12-23T15:34:52.527Z,6.50
2022-12-23T15:37:25.627Z,5.83
2022-12-23T15:40:03.087Z,8.77
2022-12-23T15:42:35.461Z,6.03
2022-12-23T15:45:23.472Z,8.53
2022-12-23T15:47:51.026Z,5.50
2022-12-23T15:50:18.984Z,6.70
2022-12-23T15:52:48.789Z,5.50
2022-12-23T15:55:27.794Z,5.70
2022-12-23T15:57:55.123Z,4.87
2022-12-23T16:00:27.650Z,5.73
2022-12-23T16:03:02.524Z,4.70
2022-12-23T16:05:32.191Z,5.07
2022-12-23T16:08:28.906Z,4.60
2022-12-23T16:11:19.132Z,8.47
2022-12-23T16:14:00.430Z,6.97
2022-12-23T16:16:43.332Z,5.43
2022-12-23T16:19:39.149Z,7.60
2022-12-23T16:22:29.698Z,5.67
2022-12-23T16:24:56.737Z,6.20
2022-12-23T16:27:40.344Z,8.77
2022-12-23T16:30:16.259Z,10.10
2022-12-23T16:32:51.288Z,5.90
2022-12-23T16:35:40.217Z,4.17
2022-12-23T16:38:23.683Z,3.20
2022-12-23T16:40:52.703Z,4.40
2022-12-23T16:43:20.658Z,2.50
2022-12-23T16:45:51.354Z,3.27
2022-12-23T16:48:39.364Z,2.77
2022-12-23T16:51:20.189Z,2.30
2022-12-23T16:53:51.581Z,6.47
2022-12-23T16:56:20.945Z,8.20
2022-12-23T16:58:47.727Z,5.87
2022-12-23T17:01:20.359Z,4.40
2022-12-23T17:03:47.498Z,8.40
2022-12-23T17:06:16.274Z,7.13
2022-12-23T17:08:43.906Z,6.90
2022-12-23T17:11:18.080Z,8.80
2022-12-23T17:13:45.367Z,11.40
2022-12-23T17:16:20.349Z,8.73
2022-12-23T17:18:51.758Z,9.13
2022-12-23T17:21:30.384Z,9.27
2022-12-23T17:24:20.604Z,8.87
2022-12-23T17:26:47.696Z,7.83
2022-12-23T17:29:14.799Z,10.50
2022-12-23T17:31:42.758Z,10.73
2022-12-23T17:34:15.016Z,9.83
2022-12-23T17:36:49.229Z,10.73
2022-12-23T17:39:17.325Z,8.63
2022-12-23T17:41:44.597Z,11.40
2022-12-23T17:44:16.303Z,7.80
2022-12-23T17:46:43.406Z,10.90
2022-12-23T17:49:10.545Z,11.73
2022-12-23T17:51:40.183Z,15.73
2022-12-23T17:54:07.363Z,9.80
2022-12-23T17:56:34.073Z,12.73
2022-12-23T17:59:01.196Z,11.57
2022-12-23T18:01:29.960Z,12.50
2022-12-23T18:03:57.782Z,12.23
2022-12-23T18:06:25.532Z,10.77
2022-12-23T18:08:52.652Z,13.40
2022-12-23T18:11:21.973Z,12.77
2022-12-23T18:13:50.637Z,11.03
2022-12-23T18:16:17.766Z,17.40
2022-12-23T18:18:46.894Z,11.30
2022-12-23T18:21:16.694Z,16.63
2022-12-23T18:23:43.418Z,17.37
2022-12-23T18:26:15.015Z,13.90
2022-12-23T18:28:42.935Z,17.07
2022-12-23T18:31:16.994Z,16.50
2022-12-23T18:33:44.184Z,17.40
2022-12-23T18:36:21.523Z,23.50
2022-12-23T18:38:48.423Z,21.53
2022-12-23T18:41:15.516Z,17.40
2022-12-23T18:43:42.749Z,15.97
2022-12-23T18:46:09.845Z,19.57
2022-12-23T18:48:36.561Z,15.90
2022-12-23T18:51:03.666Z,17.60
2022-12-23T18:53:30.752Z,22.50
2022-12-23T18:55:57.852Z,17.17
2022-12-23T18:58:24.585Z,16.27
2022-12-23T19:00:56.789Z,20.73
2022-12-23T19:03:28.726Z,13.27
2022-12-23T19:05:56.297Z,17.23
2022-12-23T19:08:27.144Z,12.07
2022-12-23T19:10:55.471Z,14.07
2022-12-23T19:13:22.553Z,14.57
2022-12-23T19:15:49.342Z,19.77
2022-12-23T19:18:18.682Z,18.00
2022-12-23T19:20:46.375Z,17.80
2022-12-23T19:23:13.701Z,14.70
2022-12-23T19:25:41.902Z,19.03
2022-12-23T19:28:09.658Z,14.40
2022-12-23T19:30:37.012Z,17.77
2022-12-23T19:33:04.167Z,17.73
2022-12-23T19:35:31.281Z,16.20
2022-12-23T19:37:58.346Z,21.53
2022-12-23T19:40:25.594Z,16.70
2022-12-23T19:42:52.710Z,18.13
2022-12-23T19:45:19.816Z,14.97
2022-12-23T19:47:46.993Z,12.17
2022-12-23T19:50:14.385Z,16.33
2022-12-23T19:52:41.447Z,15.67
2022-12-23T19:55:10.141Z,17.83
2022-12-23T19:57:36.970Z,16.20
2022-12-23T20:00:04.506Z,14.70
2022-12-23T20:02:31.270Z,20.73
2022-12-23T20:04:58.435Z,17.13
2022-12-23T20:07:25.609Z,14.17
2022-12-23T20:09:53.066Z,12.27
2022-12-23T20:12:19.783Z,19.80
2022-12-23T20:14:46.883Z,13.93
2022-12-23T20:17:13.525Z,17.93
2022-12-23T20:19:45.614Z,12.83
2022-12-23T20:22:13.606Z,16.60
2022-12-23T20:24:40.286Z,20.03
2022-12-23T20:27:11.444Z,18.53
2022-12-23T20:29:39.825Z,16.77
2022-12-23T20:32:06.988Z,12.80
2022-12-23T20:34:39.203Z,15.93
2022-12-23T20:37:07.361Z,18.97
2022-12-23T20:39:34.469Z,18.07
2022-12-23T20:42:01.660Z,18.87
2022-12-23T20:44:36.923Z,14.67
2022-12-23T20:47:06.093Z,13.20
2022-12-23T20:49:33.096Z,19.27
2022-12-23T20:52:00.259Z,15.73
2022-12-23T20:54:32.637Z,12.97
2022-12-23T20:57:00.959Z,13.80
2022-12-23T20:59:28.088Z,15.90
2022-12-23T21:01:55.379Z,11.53
2022-12-23T21:04:22.853Z,11.10
2022-12-23T21:06:50.093Z,13.37
2022-12-23T21:09:17.687Z,15.47
2022-12-23T21:11:46.327Z,13.27
2022-12-23T21:14:14.374Z,15.30
2022-12-23T21:16:41.969Z,14.40
2022-12-23T21:19:09.966Z,15.17
2022-12-23T21:21:37.054Z,10.50
2022-12-23T21:24:04.621Z,13.03
2022-12-23T21:26:33.135Z,13.57
2022-12-23T21:29:01.158Z,13.20
2022-12-23T21:31:29.638Z,15.97
2022-12-23T21:33:57.005Z,12.73
2022-12-23T21:36:25.615Z,14.87
2022-12-23T21:38:52.780Z,13.10
2022-12-23T21:41:22.113Z,13.13
2022-12-23T21:43:49.826Z,12.90
2022-12-23T21:46:18.927Z,17.03
2022-12-23T21:48:47.346Z,13.77
2022-12-23T21:51:22.402Z,16.47
2022-12-23T21:53:51.033Z,14.97
2022-12-23T21:56:20.890Z,14.83
2022-12-23T21:58:48.083Z,12.50
2022-12-23T22:01:19.556Z,10.53
2022-12-23T22:03:48.627Z,15.53
2022-12-23T22:06:17.263Z,18.93
2022-12-23T22:08:44.364Z,14.77
2022-12-23T22:11:31.192Z,11.67
2022-12-23T22:13:58.778Z,14.30
2022-12-23T22:16:26.691Z,14.13
2022-12-23T22:18:54.893Z,15.50
2022-12-23T22:21:23.064Z,18.13
2022-12-23T22:23:51.195Z,19.77
2022-12-23T22:26:25.449Z,12.10
2022-12-23T22:28:57.522Z,15.20
2022-12-23T22:31:24.597Z,14.70
2022-12-23T22:33:51.712Z,13.17
2022-12-23T22:36:18.818Z,18.07
2022-12-23T22:38:55.445Z,16.07
2022-12-23T22:41:23.742Z,19.47
2022-12-23T22:43:50.863Z,13.07
2022-12-23T22:46:18.403Z,17.13
2022-12-23T22:48:45.939Z,14.13
2022-12-23T22:51:16.913Z,13.60
2022-12-23T22:53:44.014Z,16.13
2022-12-23T22:56:12.692Z,14.53
2022-12-23T22:58:39.891Z,16.97
2022-12-23T23:01:07.618Z,16.37
2022-12-23T23:03:34.280Z,14.97
2022-12-23T23:06:09.668Z,16.77
2022-12-23T23:08:36.379Z,13.93
2022-12-23T23:11:04.992Z,15.10
2022-12-23T23:13:33.333Z,17.77
2022-12-23T23:16:01.513Z,17.93
2022-12-23T23:18:29.156Z,15.87
2022-12-23T23:20:56.237Z,25.20
2022-12-23T23:23:23.064Z,13.93
2022-12-23T23:25:50.232Z,22.40
2022-12-23T23:28:17.280Z,18.67
2022-12-23T23:30:44.491Z,18.57
2022-12-23T23:33:11.756Z,14.60
2022-12-23T23:35:39.085Z,15.77
2022-12-23T23:38:06.056Z,18.53
2022-12-23T23:40:33.352Z,20.07
2022-12-23T23:43:00.831Z,21.93
2022-12-23T23:45:27.794Z,19.43
2022-12-23T23:47:55.651Z,22.53
2022-12-23T23:50:22.520Z,17.27
2022-12-23T23:52:49.585Z,19.30
2022-12-23T23:55:16.531Z,18.70
2022-12-23T23:57:43.602Z,20.87
